Time;durP1;ratioP1;P1;durP2;ratioP2;P2;SDS_P1;SDS_P2;PMS_P1;PMS_P2;Temp;Humidity;BMP_temperature;BMP_pressure;BME280_temperature;BME280_humidity;BME280_pressure;Samples;Min_cycle;Max_cycle;Signal;HPM_P1;HPM_P2
2023/06/10 00:01:23;;;;;;;6.80;6.10;;;19.30;99.90;;;;;;5151836;27;20572;-64
2023/06/10 00:03:50;;;;;;;6.93;6.23;;;19.30;99.90;;;;;;5151758;27;20184;-65
2023/06/10 00:06:16;;;;;;;9.23;6.33;;;19.20;99.90;;;;;;5151706;27;20931;-65
2023/06/10 00:08:47;;;;;;;9.60;6.03;;;19.10;99.90;;;;;;5151597;27;20433;-66
2023/06/10 00:11:12;;;;;;;7.60;6.70;;;19.00;99.90;;;;;;5151614;27;20341;-67
2023/06/10 00:13:38;;;;;;;8.83;6.27;;;18.90;99.90;;;;;;5151717;27;20978;-64
2023/06/10 00:16:04;;;;;;;7.10;6.50;;;18.80;99.90;;;;;;5151418;27;20255;-63
2023/06/10 00:18:31;;;;;;;6.87;6.10;;;18.70;99.90;;;;;;5151533;27;20297;-64
2023/06/10 00:21:02;;;;;;;7.73;6.93;;;18.70;99.90;;;;;;5151364;27;20207;-64
2023/06/10 00:23:30;;;;;;;6.83;6.20;;;18.70;99.90;;;;;;5132363;27;21235;-65
2023/06/10 00:25:57;;;;;;;7.53;6.73;;;18.70;99.90;;;;;;5132320;27;20463;-65
2023/06/10 00:28:23;;;;;;;8.40;6.83;;;18.60;99.90;;;;;;5150576;27;20509;-64
2023/06/10 00:30:49;;;;;;;7.30;6.60;;;18.50;99.90;;;;;;5150699;27;20552;-63
2023/06/10 00:33:15;;;;;;;8.23;7.07;;;18.30;99.90;;;;;;5150487;27;20211;-64
2023/06/10 00:35:40;;;;;;;14.13;7.70;;;18.30;99.90;;;;;;5150533;27;20810;-64
2023/06/10 00:38:06;;;;;;;7.10;6.40;;;18.30;99.90;;;;;;5150298;27;20209;-64
2023/06/10 00:40:38;;;;;;;11.37;8.23;;;18.20;99.90;;;;;;5150364;27;20247;-64
2023/06/10 00:43:04;;;;;;;6.90;5.83;;;18.30;99.90;;;;;;5150372;27;20187;-64
2023/06/10 00:45:30;;;;;;;7.70;6.90;;;18.50;99.90;;;;;;5150311;27;20405;-65
2023/06/10 00:47:56;;;;;;;12.40;7.60;;;18.60;99.90;;;;;;5150409;27;20294;-64
2023/06/10 00:50:21;;;;;;;8.80;7.30;;;18.70;99.90;;;;;;5149405;27;20268;-64
2023/06/10 00:52:48;;;;;;;12.03;7.60;;;18.60;99.90;;;;;;5150288;27;20432;-65
2023/06/10 00:55:16;;;;;;;11.53;7.80;;;18.30;99.90;;;;;;5150227;27;20191;-64
2023/06/10 00:57:44;;;;;;;10.97;7.50;;;18.20;99.90;;;;;;5150128;27;21107;-64
2023/06/10 01:00:12;;;;;;;8.00;7.20;;;18.10;99.90;;;;;;5150287;27;20917;-64
2023/06/10 01:02:37;;;;;;;9.33;7.50;;;18.00;99.90;;;;;;5150002;27;20423;-64
2023/06/10 01:05:03;;;;;;;9.53;7.83;;;18.00;99.90;;;;;;5149852;27;20925;-65
2023/06/10 01:07:39;;;;;;;9.27;7.00;;;17.80;99.90;;;;;;5149807;27;20267;-65
2023/06/10 01:10:10;;;;;;;9.73;6.87;;;17.70;99.90;;;;;;5149694;27;20433;-64
2023/06/10 01:12:56;;;;;;;7.83;7.03;;;17.50;99.90;;;;;;5149805;27;20784;-64
2023/06/10 01:15:22;;;;;;;9.90;7.80;;;17.50;99.90;;;;;;5149899;27;20474;-64
2023/06/10 01:18:02;;;;;;;7.73;7.00;;;17.40;99.90;;;;;;5149635;27;20441;-65
2023/06/10 01:20:32;;;;;;;8.00;7.20;;;17.40;99.90;;;;;;5149506;27;20989;-64
2023/06/10 01:22:59;;;;;;;8.83;7.73;;;17.30;99.90;;;;;;5149662;27;20411;-65
2023/06/10 01:25:32;;;;;;;9.57;7.17;;;17.30;99.90;;;;;;5149593;27;20426;-64
2023/06/10 01:28:36;;;;;;;9.00;7.60;;;17.20;99.90;;;;;;5149456;27;20895;-65
2023/06/10 01:31:07;;;;;;;9.17;6.97;;;17.30;99.90;;;;;;5149638;27;20434;-65
2023/06/10 01:33:39;;;;;;;8.07;7.27;;;17.20;99.90;;;;;;5130843;27;20512;-65
2023/06/10 01:36:05;;;;;;;9.37;7.83;;;17.20;99.90;;;;;;5149648;27;20448;-66
2023/06/10 01:38:36;;;;;;;11.03;8.03;;;17.10;99.90;;;;;;5130877;27;20799;-65
2023/06/10 01:41:03;;;;;;;8.07;7.27;;;17.10;99.90;;;;;;5149548;27;20456;-65
2023/06/10 01:43:28;;;;;;;9.30;8.30;;;16.90;99.90;;;;;;5149672;27;20489;-66
2023/06/10 01:45:54;;;;;;;10.07;8.20;;;16.90;99.90;;;;;;5149454;27;20556;-65
2023/06/10 01:48:20;;;;;;;11.73;8.33;;;16.90;99.90;;;;;;5149370;27;20204;-66
2023/06/10 01:50:45;;;;;;;8.37;7.57;;;16.80;99.90;;;;;;5149465;27;20557;-65
2023/06/10 01:53:11;;;;;;;8.87;7.97;;;16.80;99.90;;;;;;5149304;27;20271;-65
2023/06/10 01:55:36;;;;;;;9.30;8.40;;;16.70;99.90;;;;;;5149629;27;20191;-65
2023/06/10 01:58:02;;;;;;;12.20;8.07;;;16.70;99.90;;;;;;5149255;27;20234;-64
2023/06/10 02:00:28;;;;;;;9.43;8.43;;;16.60;99.90;;;;;;5149191;27;20211;-66
2023/06/10 02:02:53;;;;;;;10.60;8.47;;;16.60;99.90;;;;;;5151987;27;20175;-65
2023/06/10 02:05:19;;;;;;;10.77;8.23;;;16.70;99.90;;;;;;5153283;27;20291;-65
2023/06/10 02:07:45;;;;;;;8.13;7.33;;;16.80;99.90;;;;;;5153150;27;20721;-65
2023/06/10 02:10:10;;;;;;;9.27;7.30;;;16.80;99.90;;;;;;5153121;27;20190;-65
2023/06/10 02:12:36;;;;;;;9.70;7.67;;;16.90;99.90;;;;;;5153178;27;20503;-64
2023/06/10 02:15:01;;;;;;;8.10;7.30;;;16.80;99.90;;;;;;5134593;27;20589;-66
2023/06/10 02:17:27;;;;;;;8.87;7.50;;;16.90;99.90;;;;;;5152961;27;20200;-65
2023/06/10 02:19:53;;;;;;;11.13;7.90;;;16.90;99.90;;;;;;5152834;27;20258;-65
2023/06/10 02:22:22;;;;;;;7.13;6.40;;;16.90;99.90;;;;;;5153004;27;20183;-65
2023/06/10 02:24:48;;;;;;;7.63;6.77;;;16.90;99.90;;;;;;5153125;27;20938;-64
2023/06/10 02:27:15;;;;;;;9.63;7.80;;;16.90;99.90;;;;;;5152799;27;20473;-64
2023/06/10 02:29:41;;;;;;;8.27;6.17;;;17.00;99.90;;;;;;5153301;27;20994;-65
2023/06/10 02:32:08;;;;;;;12.40;7.37;;;17.10;99.90;;;;;;5152737;27;20440;-65
2023/06/10 02:34:34;;;;;;;7.23;6.60;;;17.10;99.90;;;;;;5152649;27;20511;-65
2023/06/10 02:37:00;;;;;;;7.00;6.37;;;17.10;99.90;;;;;;5152625;27;20424;-65
2023/06/10 02:39:26;;;;;;;8.37;6.80;;;17.20;99.90;;;;;;5152645;27;20435;-67
2023/06/10 02:41:52;;;;;;;9.27;6.40;;;17.20;99.90;;;;;;5152591;27;20474;-65
2023/06/10 02:44:20;;;;;;;7.67;6.87;;;17.20;99.90;;;;;;5152439;27;20180;-65
2023/06/10 02:46:46;;;;;;;7.60;6.90;;;17.10;99.90;;;;;;5152512;27;20370;-65
2023/06/10 02:49:12;;;;;;;7.20;6.40;;;17.30;99.90;;;;;;5152280;27;20550;-65
2023/06/10 02:51:38;;;;;;;11.70;7.30;;;17.40;99.90;;;;;;5152374;27;20181;-65
2023/06/10 02:54:04;;;;;;;10.60;8.10;;;17.20;99.90;;;;;;5152426;27;20420;-64
2023/06/10 02:56:31;;;;;;;8.97;8.07;;;17.00;99.90;;;;;;5152230;27;20412;-65
2023/06/10 02:58:57;;;;;;;8.83;8.00;;;16.90;99.90;;;;;;5133590;27;20447;-64
2023/06/10 03:01:23;;;;;;;9.70;8.70;;;16.60;99.90;;;;;;5152049;27;20480;-64
2023/06/10 03:03:50;;;;;;;8.80;7.90;;;16.40;99.90;;;;;;5152363;27;20411;-64
2023/06/10 03:06:15;;;;;;;10.00;9.00;;;16.30;99.90;;;;;;5152158;27;20175;-65
2023/06/10 03:08:41;;;;;;;11.77;9.30;;;16.20;99.90;;;;;;5151825;27;20497;-64
2023/06/10 03:11:07;;;;;;;10.80;9.07;;;16.10;99.90;;;;;;5152075;27;20183;-64
2023/06/10 03:13:32;;;;;;;10.03;8.00;;;16.10;99.90;;;;;;5151114;27;20217;-64
2023/06/10 03:15:58;;;;;;;9.17;8.27;;;16.10;99.90;;;;;;5151834;27;20179;-64
2023/06/10 03:18:27;;;;;;;10.10;8.57;;;16.10;99.90;;;;;;5151865;27;20810;-64
2023/06/10 03:20:56;;;;;;;9.67;8.60;;;16.00;99.90;;;;;;5151797;27;20343;-64
2023/06/10 03:23:23;;;;;;;11.57;8.87;;;15.90;99.90;;;;;;5133034;27;20506;-65
2023/06/10 03:25:52;;;;;;;10.07;8.43;;;15.90;99.90;;;;;;5151582;27;20421;-64
2023/06/10 03:28:18;;;;;;;8.97;8.03;;;15.70;99.90;;;;;;5133069;27;20444;-64
2023/06/10 03:30:43;;;;;;;10.00;8.50;;;15.60;99.90;;;;;;5151445;27;20420;-66
2023/06/10 03:33:09;;;;;;;13.80;8.53;;;15.60;99.90;;;;;;5132817;27;20183;-65
2023/06/10 03:35:34;;;;;;;10.40;8.37;;;15.50;99.90;;;;;;5132951;27;20306;-64
2023/06/10 03:38:00;;;;;;;11.43;8.90;;;15.20;99.90;;;;;;5151321;27;20274;-64
2023/06/10 03:40:26;;;;;;;8.70;7.83;;;15.40;99.90;;;;;;5151548;27;20211;-64
2023/06/10 03:42:51;;;;;;;9.80;8.33;;;15.30;99.90;;;;;;5151586;27;20182;-64
2023/06/10 03:45:17;;;;;;;11.47;8.00;;;15.30;99.90;;;;;;5132678;27;20667;-64
2023/06/10 03:47:43;;;;;;;9.13;7.90;;;15.30;99.90;;;;;;5151250;27;20215;-64
2023/06/10 03:50:09;;;;;;;9.83;8.23;;;15.10;99.90;;;;;;5151143;27;20418;-64
2023/06/10 03:52:36;;;;;;;10.47;8.83;;;15.00;99.90;;;;;;5151098;27;20459;-64
2023/06/10 03:55:01;;;;;;;9.00;8.10;;;15.00;99.90;;;;;;5150968;27;20426;-63
2023/06/10 03:57:27;;;;;;;11.10;8.37;;;15.00;99.90;;;;;;5150827;27;20530;-64
2023/06/10 03:59:53;;;;;;;9.57;8.17;;;14.90;99.90;;;;;;5150829;27;20735;-64
2023/06/10 04:02:19;;;;;;;9.20;7.97;;;15.00;99.90;;;;;;5150895;27;20200;-65
2023/06/10 04:04:44;;;;;;;9.00;8.00;;;15.10;99.90;;;;;;5150867;27;20879;-64
2023/06/10 04:07:10;;;;;;;8.97;7.70;;;15.30;99.90;;;;;;5150677;27;20177;-64
2023/06/10 04:09:37;;;;;;;12.70;8.20;;;15.30;99.90;;;;;;5150869;27;20664;-64
2023/06/10 04:12:06;;;;;;;13.23;9.00;;;15.30;99.90;;;;;;5151017;27;20804;-65
2023/06/10 04:14:31;;;;;;;12.13;8.20;;;15.40;99.90;;;;;;5150906;27;20916;-64
2023/06/10 04:16:57;;;;;;;12.10;7.40;;;15.40;99.90;;;;;;5132165;27;20430;-65
2023/06/10 04:19:22;;;;;;;12.00;8.10;;;15.40;99.90;;;;;;5132360;27;20664;-65
2023/06/10 04:21:48;;;;;;;8.93;7.90;;;15.50;99.90;;;;;;5132589;27;20269;-64
2023/06/10 04:24:14;;;;;;;10.47;8.43;;;15.50;99.90;;;;;;5131946;27;20195;-64
2023/06/10 04:26:39;;;;;;;11.33;9.20;;;15.50;99.90;;;;;;5150500;27;20663;-65
2023/06/10 04:29:05;;;;;;;8.47;7.57;;;15.60;99.90;;;;;;5150554;27;20201;-66
2023/06/10 04:31:32;;;;;;;9.93;8.93;;;15.60;99.90;;;;;;5150759;27;20224;-64
2023/06/10 04:33:57;;;;;;;13.90;9.80;;;15.80;99.90;;;;;;5150433;27;20196;-65
2023/06/10 04:36:23;;;;;;;10.20;9.10;;;15.80;99.90;;;;;;5150495;27;20530;-65
2023/06/10 04:38:49;;;;;;;10.97;8.70;;;15.80;99.90;;;;;;5131881;27;20608;-64
2023/06/10 04:41:14;;;;;;;12.63;9.53;;;16.00;99.90;;;;;;5150491;27;20216;-65
2023/06/10 04:43:40;;;;;;;11.40;9.37;;;16.10;99.90;;;;;;5150344;27;20180;-65
2023/06/10 04:46:06;;;;;;;10.97;9.50;;;16.10;99.90;;;;;;5150551;27;20172;-64
2023/06/10 04:48:35;;;;;;;12.67;8.87;;;16.10;99.90;;;;;;5150630;27;20214;-65
2023/06/10 04:51:00;;;;;;;10.60;8.63;;;16.30;99.90;;;;;;5150652;27;20651;-65
2023/06/10 04:53:26;;;;;;;12.50;9.67;;;16.30;99.90;;;;;;5150270;27;20457;-64
2023/06/10 04:55:52;;;;;;;11.37;10.00;;;16.40;99.90;;;;;;5150403;27;20187;-65
2023/06/10 04:58:18;;;;;;;11.60;10.10;;;16.50;99.90;;;;;;5131389;27;20445;-65
2023/06/10 05:00:43;;;;;;;10.70;9.37;;;16.60;99.90;;;;;;5150303;27;20248;-65
2023/06/10 05:03:09;;;;;;;10.20;8.63;;;16.50;99.90;;;;;;5150176;27;20645;-65
2023/06/10 05:05:34;;;;;;;10.53;9.43;;;16.60;99.90;;;;;;5150234;27;20651;-64
2023/06/10 05:08:00;;;;;;;14.73;9.37;;;16.70;99.90;;;;;;5150142;27;20206;-64
2023/06/10 05:10:26;;;;;;;10.43;9.43;;;16.70;99.90;;;;;;5131501;27;20190;-65
2023/06/10 05:12:51;;;;;;;10.00;8.60;;;16.80;99.90;;;;;;5149966;27;20179;-64
2023/06/10 05:15:17;;;;;;;13.30;10.60;;;16.90;99.90;;;;;;5150064;27;20193;-64
2023/06/10 05:17:42;;;;;;;11.57;8.70;;;16.90;99.90;;;;;;5150227;27;20214;-65
2023/06/10 05:20:08;;;;;;;10.10;8.90;;;16.90;99.90;;;;;;5150042;27;20563;-65
2023/06/10 05:22:34;;;;;;;10.10;8.47;;;17.00;99.90;;;;;;5149926;27;20275;-64
2023/06/10 05:25:00;;;;;;;9.20;8.30;;;17.30;99.90;;;;;;5150013;27;20417;-66
2023/06/10 05:27:25;;;;;;;10.77;8.50;;;17.50;99.90;;;;;;5131108;27;20690;-67
2023/06/10 05:29:51;;;;;;;8.50;7.70;;;17.60;99.90;;;;;;5131046;27;20187;-67
2023/06/10 05:32:17;;;;;;;12.03;9.07;;;17.80;99.90;;;;;;5150153;27;20202;-67
2023/06/10 05:34:43;;;;;;;9.83;8.83;;;18.00;99.90;;;;;;5149739;27;20187;-67
2023/06/10 05:37:08;;;;;;;10.27;9.17;;;18.10;99.90;;;;;;5151631;27;20422;-68
2023/06/10 05:39:37;;;;;;;10.27;8.17;;;18.10;99.90;;;;;;5154019;27;20324;-67
2023/06/10 05:42:06;;;;;;;8.97;8.07;;;18.20;99.90;;;;;;5135788;27;20204;-67
2023/06/10 05:44:32;;;;;;;10.43;7.83;;;18.20;99.90;;;;;;5135714;27;20444;-66
2023/06/10 05:46:57;;;;;;;12.37;8.57;;;18.20;99.90;;;;;;5153736;27;20909;-67
2023/06/10 05:49:23;;;;;;;19.40;9.07;;;18.30;99.90;;;;;;5153878;27;20299;-67
2023/06/10 05:51:48;;;;;;;9.30;8.40;;;18.40;99.90;;;;;;5135332;27;20403;-67
2023/06/10 05:54:14;;;;;;;10.23;9.17;;;18.50;99.90;;;;;;5135706;27;20552;-66
2023/06/10 05:56:40;;;;;;;13.93;8.87;;;18.60;99.90;;;;;;5154043;27;20220;-67
2023/06/10 05:59:05;;;;;;;9.53;8.63;;;18.70;99.90;;;;;;5154146;27;20586;-67
2023/06/10 06:01:31;;;;;;;9.97;8.80;;;18.90;99.90;;;;;;5154325;27;20712;-67
2023/06/10 06:03:56;;;;;;;8.37;7.57;;;19.10;99.90;;;;;;5154391;27;20183;-66
2023/06/10 06:06:23;;;;;;;14.03;9.07;;;19.20;99.90;;;;;;5135559;27;20183;-67
2023/06/10 06:08:48;;;;;;;8.80;7.57;;;19.30;99.90;;;;;;5154266;27;20195;-67
2023/06/10 06:11:14;;;;;;;8.80;7.90;;;19.30;99.90;;;;;;5154139;27;20812;-68
2023/06/10 06:13:41;;;;;;;9.80;8.90;;;19.50;99.90;;;;;;5135779;27;20198;-68
2023/06/10 06:16:06;;;;;;;9.43;8.13;;;19.60;99.90;;;;;;5154162;27;20181;-66
2023/06/10 06:18:32;;;;;;;9.60;8.43;;;19.70;99.90;;;;;;5154052;27;20862;-67
2023/06/10 06:20:58;;;;;;;9.80;7.60;;;19.80;99.90;;;;;;5153819;27;20292;-67
2023/06/10 06:23:23;;;;;;;9.90;8.90;;;20.00;99.90;;;;;;5135074;27;20244;-66
2023/06/10 06:25:49;;;;;;;9.97;9.07;;;20.10;99.90;;;;;;5153486;27;20274;-66
2023/06/10 06:28:14;;;;;;;9.83;8.83;;;20.10;99.90;;;;;;5153208;27;20216;-67
2023/06/10 06:30:40;;;;;;;9.07;8.17;;;20.20;99.90;;;;;;5153209;27;20199;-67
2023/06/10 06:33:06;;;;;;;9.10;8.20;;;20.20;99.90;;;;;;5153312;27;20176;-66
2023/06/10 06:35:33;;;;;;;10.20;7.43;;;20.30;99.90;;;;;;5152986;27;20663;-66
2023/06/10 06:37:59;;;;;;;12.90;8.00;;;20.30;99.90;;;;;;5152983;27;20592;-67
2023/06/10 06:40:25;;;;;;;9.93;8.20;;;20.30;99.90;;;;;;5152748;27;20469;-67
2023/06/10 06:42:50;;;;;;;10.57;7.60;;;20.30;99.90;;;;;;5152695;27;20410;-67
2023/06/10 06:45:16;;;;;;;10.87;8.27;;;20.40;99.90;;;;;;5152741;27;20261;-66
2023/06/10 06:47:42;;;;;;;9.60;8.03;;;20.40;99.90;;;;;;5152664;27;20744;-67
2023/06/10 06:50:09;;;;;;;8.27;7.47;;;20.40;99.90;;;;;;5134035;27;20195;-66
2023/06/10 06:52:35;;;;;;;8.70;7.50;;;20.50;99.90;;;;;;5152670;27;20409;-67
2023/06/10 06:55:00;;;;;;;8.17;7.43;;;20.60;99.90;;;;;;5152511;27;20804;-66
2023/06/10 06:57:26;;;;;;;8.63;7.73;;;20.80;99.90;;;;;;5152329;27;20200;-67
2023/06/10 06:59:52;;;;;;;8.90;8.00;;;20.90;99.90;;;;;;5152219;27;20184;-66
2023/06/10 07:02:18;;;;;;;9.33;7.67;;;21.10;99.90;;;;;;5152392;27;20216;-66
2023/06/10 07:04:45;;;;;;;9.97;7.83;;;21.20;99.90;;;;;;5152234;27;20632;-66
2023/06/10 07:07:11;;;;;;;9.87;7.40;;;21.30;99.90;;;;;;5152212;27;21001;-66
2023/06/10 07:09:37;;;;;;;9.90;8.90;;;21.40;99.90;;;;;;5152478;27;20539;-67
2023/06/10 07:12:03;;;;;;;8.20;7.40;;;21.40;99.90;;;;;;5152301;27;20249;-67
2023/06/10 07:14:29;;;;;;;9.10;8.13;;;21.50;99.90;;;;;;5152548;27;20915;-67
2023/06/10 07:16:55;;;;;;;9.93;8.40;;;21.50;99.90;;;;;;5152016;27;20536;-66
2023/06/10 07:19:20;;;;;;;7.80;7.00;;;21.60;99.90;;;;;;5133376;27;20223;-66
2023/06/10 07:21:46;;;;;;;8.50;7.27;;;21.60;99.90;;;;;;5152112;27;20215;-67
2023/06/10 07:24:11;;;;;;;9.70;7.40;;;21.70;99.90;;;;;;5151878;27;20599;-67
2023/06/10 07:26:37;;;;;;;8.30;7.50;;;21.90;99.90;;;;;;5151817;27;20192;-67
2023/06/10 07:29:03;;;;;;;8.90;7.30;;;22.00;99.90;;;;;;5151869;27;20926;-67
2023/06/10 07:31:28;;;;;;;11.43;8.23;;;21.90;99.90;;;;;;5151989;27;20203;-67
2023/06/10 07:33:54;;;;;;;10.20;8.10;;;22.00;99.90;;;;;;5133270;27;20281;-67
2023/06/10 07:36:20;;;;;;;8.17;7.20;;;22.10;99.90;;;;;;5152483;27;20243;-67
2023/06/10 07:38:45;;;;;;;7.80;7.00;;;22.10;99.90;;;;;;5152317;27;20208;-67
2023/06/10 07:41:11;;;;;;;9.50;6.60;;;22.20;99.90;;;;;;5152264;27;20705;-67
2023/06/10 07:43:37;;;;;;;11.73;7.30;;;22.20;99.90;;;;;;5152789;27;20645;-67
2023/06/10 07:46:02;;;;;;;7.17;6.47;;;22.30;99.90;;;;;;5133869;27;20234;-67
2023/06/10 07:48:28;;;;;;;11.97;6.87;;;22.40;99.90;;;;;;5152482;27;20434;-66
2023/06/10 07:50:54;;;;;;;8.93;7.10;;;22.50;99.90;;;;;;5133583;27;20189;-67
2023/06/10 07:53:19;;;;;;;7.53;6.90;;;22.50;99.90;;;;;;5152121;27;20245;-66
2023/06/10 07:55:45;;;;;;;9.20;7.00;;;22.60;99.90;;;;;;5152119;27;20194;-67
2023/06/10 07:58:11;;;;;;;9.90;7.07;;;22.60;99.90;;;;;;5151970;27;20212;-66
2023/06/10 08:00:36;;;;;;;7.83;7.03;;;22.60;99.90;;;;;;5132865;27;20213;-68
2023/06/10 08:03:02;;;;;;;7.43;6.53;;;22.80;99.90;;;;;;5151991;27;20181;-69
2023/06/10 08:05:28;;;;;;;7.80;6.57;;;22.90;99.90;;;;;;5152104;27;20566;-67
2023/06/10 08:07:55;;;;;;;7.50;6.47;;;23.00;99.90;;;;;;5151825;27;20197;-67
2023/06/10 08:10:20;;;;;;;7.73;7.00;;;23.20;99.90;;;;;;5133010;27;20947;-69
2023/06/10 08:12:46;;;;;;;8.67;6.07;;;23.30;99.90;;;;;;5151912;27;20550;-68
2023/06/10 08:15:11;;;;;;;6.20;5.60;;;23.40;99.90;;;;;;5151720;27;20184;-67
2023/06/10 08:17:38;;;;;;;6.33;5.70;;;23.40;99.90;;;;;;5151624;27;20207;-68
2023/06/10 08:20:05;;;;;;;6.70;5.57;;;23.70;99.90;;;;;;5151406;27;20189;-68
2023/06/10 08:22:31;;;;;;;7.23;6.53;;;23.80;99.90;;;;;;5132827;27;20416;-67
2023/06/10 08:24:57;;;;;;;7.00;6.30;;;24.00;99.90;;;;;;5151112;27;20422;-68
2023/06/10 08:27:22;;;;;;;6.40;5.83;;;24.10;99.90;;;;;;5132114;27;20844;-67
2023/06/10 08:29:48;;;;;;;5.70;5.07;;;24.30;99.90;;;;;;5151292;27;20732;-68
2023/06/10 08:32:13;;;;;;;5.00;4.43;;;24.40;99.90;;;;;;5150882;27;20202;-67
2023/06/10 08:34:39;;;;;;;5.40;4.40;;;24.50;99.90;;;;;;5150744;27;20723;-67
2023/06/10 08:37:05;;;;;;;6.10;5.60;;;24.80;99.90;;;;;;5150879;27;20694;-67
2023/06/10 08:39:33;;;;;;;5.10;4.57;;;25.10;99.90;;;;;;5133343;27;20215;-69
2023/06/10 08:42:07;;;;;;;6.73;5.00;;;25.30;99.90;;;;;;5150483;27;20207;-70
2023/06/10 08:44:38;;;;;;;5.10;4.60;;;25.40;99.90;;;;;;5150796;27;21084;-67
2023/06/10 08:47:12;;;;;;;5.10;4.60;;;25.40;99.90;;;;;;5150452;27;20483;-68
2023/06/10 08:49:43;;;;;;;4.90;4.50;;;25.20;99.80;;;;;;5150864;27;20784;-67
2023/06/10 08:52:13;;;;;;;7.83;3.80;;;25.20;99.90;;;;;;5150862;27;20406;-71
2023/06/10 08:54:42;;;;;;;4.97;4.57;;;25.30;99.90;;;;;;5151179;27;20497;-71
2023/06/10 08:57:08;;;;;;;4.50;4.10;;;25.30;99.50;;;;;;5132224;27;20420;-71
2023/06/10 08:59:34;;;;;;;4.97;4.57;;;25.50;99.90;;;;;;5114696;27;20945;-71
2023/06/10 09:02:02;;;;;;;4.33;4.00;;;25.70;98.60;;;;;;5150577;27;20595;-73
2023/06/10 09:04:27;;;;;;;5.73;4.23;;;25.60;99.10;;;;;;5131597;27;20187;-71
2023/06/10 09:06:53;;;;;;;5.40;4.90;;;25.40;97.50;;;;;;5150436;27;20436;-68
2023/06/10 09:09:20;;;;;;;9.87;4.90;;;25.60;97.90;;;;;;5131081;27;20257;-69
2023/06/10 09:11:46;;;;;;;12.27;4.97;;;25.80;96.70;;;;;;5151200;27;21017;-74
2023/06/10 09:14:16;;;;;;;13.63;5.13;;;25.90;95.60;;;;;;5135994;27;20446;-73
2023/06/10 09:16:42;;;;;;;5.43;4.03;;;26.00;97.20;;;;;;5154330;27;20424;-71
2023/06/10 09:19:08;;;;;;;6.30;3.70;;;26.10;96.30;;;;;;5135912;27;20445;-74
2023/06/10 09:21:35;;;;;;;5.57;4.63;;;26.10;95.40;;;;;;5154437;27;20452;-71
2023/06/10 09:24:01;;;;;;;5.93;4.07;;;26.20;94.80;;;;;;5135384;27;20899;-72
2023/06/10 09:26:30;;;;;;;6.63;4.47;;;26.30;94.20;;;;;;5135368;27;20437;-71
2023/06/10 09:29:09;;;;;;;9.43;4.90;;;26.20;95.00;;;;;;5154222;27;20493;-73
2023/06/10 09:31:36;;;;;;;8.63;4.33;;;26.30;93.70;;;;;;5135597;27;20997;-72
2023/06/10 09:34:09;;;;;;;4.10;3.70;;;26.30;94.70;;;;;;5154403;27;20458;-72
2023/06/10 09:36:39;;;;;;;4.40;4.00;;;26.40;93.30;;;;;;5154076;27;20425;-70
2023/06/10 09:39:06;;;;;;;7.90;5.60;;;26.40;92.40;;;;;;5154136;27;20441;-73
2023/06/10 09:41:39;;;;;;;7.57;6.87;;;26.40;93.80;;;;;;5154056;27;20475;-73
2023/06/10 09:44:15;;;;;;;4.87;4.30;;;26.70;94.00;;;;;;5135315;27;20801;-71
2023/06/10 09:46:41;;;;;;;6.33;5.00;;;26.90;93.40;;;;;;5153872;27;20417;-71
2023/06/10 09:49:07;;;;;;;4.10;3.80;;;27.10;94.50;;;;;;5153909;27;20432;-71
2023/06/10 09:51:33;;;;;;;6.23;4.27;;;26.90;91.20;;;;;;5153663;27;20764;-70
2023/06/10 09:54:01;;;;;;;4.67;4.27;;;26.80;91.20;;;;;;5135082;27;20698;-69
2023/06/10 09:56:35;;;;;;;5.20;4.80;;;26.80;91.20;;;;;;5153275;27;20561;-72
2023/06/10 09:59:01;;;;;;;7.00;4.90;;;26.70;91.60;;;;;;5152973;27;20433;-69
2023/06/10 10:01:26;;;;;;;5.67;5.17;;;26.90;91.90;;;;;;5153569;27;20463;-69
2023/06/10 10:03:52;;;;;;;5.80;4.90;;;26.70;92.20;;;;;;5153519;27;20421;-66
2023/06/10 10:06:20;;;;;;;5.27;4.80;;;26.60;92.00;;;;;;5153418;27;20248;-69
2023/06/10 10:08:51;;;;;;;5.30;4.23;;;26.20;92.10;;;;;;5153330;27;20468;-69
2023/06/10 10:11:18;;;;;;;5.10;4.60;;;26.20;92.50;;;;;;5153317;27;20505;-73
2023/06/10 10:13:47;;;;;;;5.07;4.40;;;26.10;92.40;;;;;;5153247;27;20416;-68
2023/06/10 10:16:33;;;;;;;5.83;4.90;;;26.10;92.90;;;;;;5153159;27;20546;-72
2023/06/10 10:19:09;;;;;;;5.77;5.27;;;26.30;92.90;;;;;;5153295;27;20421;-74
2023/06/10 10:21:41;;;;;;;6.10;5.20;;;26.60;92.70;;;;;;5134392;27;20475;-76
2023/06/10 10:24:18;;;;;;;7.63;4.40;;;26.90;93.30;;;;;;5134027;27;20409;-75
2023/06/10 10:26:46;;;;;;;5.43;5.03;;;26.70;91.90;;;;;;5153211;27;20453;-72
2023/06/10 10:29:22;;;;;;;6.50;5.90;;;26.40;92.40;;;;;;5153233;27;20827;-71
2023/06/10 10:31:51;;;;;;;5.90;5.03;;;26.60;92.60;;;;;;5153706;27;21032;-74
2023/06/10 10:34:25;;;;;;;4.80;4.30;;;26.80;92.20;;;;;;5117653;27;20421;-76
2023/06/10 10:36:51;;;;;;;4.57;4.27;;;27.00;92.10;;;;;;5134579;27;20429;-75
2023/06/10 10:39:18;;;;;;;4.47;4.17;;;27.10;91.30;;;;;;5153319;27;20442;-74
2023/06/10 10:41:45;;;;;;;4.90;4.40;;;27.20;91.20;;;;;;5153410;27;20932;-74
2023/06/10 10:44:11;;;;;;;4.80;4.40;;;27.20;90.20;;;;;;5153729;27;21017;-76
2023/06/10 10:47:02;;;;;;;5.67;4.63;;;27.10;90.30;;;;;;5134734;27;20930;-74
2023/06/10 10:49:28;;;;;;;5.60;4.90;;;27.10;92.20;;;;;;5153742;27;20420;-76
2023/06/10 10:51:56;;;;;;;8.47;4.30;;;27.20;92.40;;;;;;5153836;27;20417;-76
2023/06/10 10:54:30;;;;;;;4.77;4.37;;;27.60;92.10;;;;;;5153510;27;20500;-77
2023/06/10 10:57:13;;;;;;;5.20;4.80;;;27.70;91.70;;;;;;5153378;27;20432;-74
2023/06/10 11:00:04;;;;;;;4.23;3.93;;;27.90;91.20;;;;;;5153413;27;20417;-73
2023/06/10 11:02:41;;;;;;;5.03;4.63;;;27.90;89.30;;;;;;5134626;27;20474;-72
2023/06/10 11:05:08;;;;;;;5.33;4.47;;;27.70;89.60;;;;;;5134449;27;20872;-75
2023/06/10 11:07:35;;;;;;;6.47;5.27;;;27.40;89.20;;;;;;5153008;27;20465;-72
2023/06/10 11:10:33;;;;;;;7.00;4.53;;;27.60;89.50;;;;;;5134003;27;20418;-74
2023/06/10 11:12:59;;;;;;;10.83;9.77;;;28.00;90.10;;;;;;5152482;27;20467;-71
2023/06/10 11:15:27;;;;;;;16.73;15.07;;;28.40;89.80;;;;;;5133783;27;20436;-72
2023/06/10 11:18:12;;;;;;;6.97;5.50;;;28.90;87.70;;;;;;5152261;27;20429;-72
2023/06/10 11:20:49;;;;;;;5.07;4.67;;;28.70;85.80;;;;;;5152484;27;20480;-72
2023/06/10 11:23:27;;;;;;;4.73;4.33;;;28.70;87.90;;;;;;5152178;27;20417;-73
2023/06/10 11:26:12;;;;;;;5.20;4.63;;;28.70;88.20;;;;;;5151991;27;20410;-71
2023/06/10 11:28:47;;;;;;;7.80;3.87;;;28.70;89.50;;;;;;5152102;27;20807;-71
2023/06/10 11:31:40;;;;;;;4.63;4.10;;;28.60;87.40;;;;;;5152278;27;20485;-71
2023/06/10 11:34:07;;;;;;;5.60;5.20;;;28.60;89.00;;;;;;5146994;27;20958;-72
2023/06/10 11:36:42;;;;;;;4.50;4.20;;;28.30;86.30;;;;;;5150574;27;20449;-72
2023/06/10 11:39:08;;;;;;;4.57;4.20;;;28.30;86.80;;;;;;5131522;27;20805;-73
2023/06/10 11:41:35;;;;;;;4.20;3.90;;;28.30;86.10;;;;;;5131589;27;20450;-72
2023/06/10 11:44:08;;;;;;;9.17;4.40;;;28.10;87.20;;;;;;5150128;27;20509;-72
2023/06/10 11:46:34;;;;;;;6.03;4.70;;;28.10;85.10;;;;;;5132041;27;20425;-72
2023/06/10 11:49:02;;;;;;;5.80;4.23;;;28.10;85.60;;;;;;5150422;27;20430;-72
2023/06/10 11:51:37;;;;;;;5.50;4.50;;;28.10;84.50;;;;;;5132004;27;21113;-72
2023/06/10 11:54:04;;;;;;;5.90;4.90;;;28.10;84.80;;;;;;5114903;27;20421;-73
2023/06/10 11:56:31;;;;;;;11.63;6.47;;;28.20;85.60;;;;;;5150333;27;20438;-72
2023/06/10 11:59:04;;;;;;;6.77;4.30;;;28.30;87.70;;;;;;5150506;27;20425;-71
2023/06/10 12:01:31;;;;;;;5.80;5.20;;;28.40;83.20;;;;;;5150615;27;21140;-72
2023/06/10 12:04:18;;;;;;;12.97;7.10;;;28.40;86.10;;;;;;5131744;27;20441;-72
2023/06/10 12:06:53;;;;;;;7.07;5.93;;;28.00;86.30;;;;;;5131842;27;20418;-72
2023/06/10 12:09:19;;;;;;;4.57;4.17;;;28.00;86.70;;;;;;5150608;27;20432;-72
2023/06/10 12:11:45;;;;;;;7.70;4.57;;;28.00;82.70;;;;;;5150509;27;20422;-72
2023/06/10 12:14:10;;;;;;;4.50;4.10;;;27.80;83.50;;;;;;5115083;27;20565;-71
2023/06/10 12:16:36;;;;;;;4.73;4.33;;;27.90;82.90;;;;;;5131723;27;20418;-71
2023/06/10 12:19:03;;;;;;;5.00;4.60;;;28.00;83.40;;;;;;5150259;27;20591;-72
2023/06/10 12:21:29;;;;;;;4.23;3.73;;;28.00;83.40;;;;;;5150270;27;20200;-72
2023/06/10 12:24:08;;;;;;;4.10;3.90;;;28.10;82.30;;;;;;5131643;27;20930;-72
2023/06/10 12:26:44;;;;;;;4.40;3.80;;;28.20;83.70;;;;;;5150351;27;20444;-72
2023/06/10 12:29:25;;;;;;;4.60;4.20;;;28.20;82.20;;;;;;5132623;27;20441;-73
2023/06/10 12:32:04;;;;;;;5.10;4.43;;;28.40;83.80;;;;;;5150375;27;21314;-73
2023/06/10 12:34:33;;;;;;;3.77;3.53;;;28.40;81.70;;;;;;5131514;27;20429;-74
2023/06/10 12:36:59;;;;;;;5.53;4.70;;;28.60;81.70;;;;;;5150133;27;20413;-71
2023/06/10 12:39:25;;;;;;;6.50;4.80;;;28.50;82.50;;;;;;5131521;27;20494;-71
2023/06/10 12:41:52;;;;;;;4.67;4.27;;;28.70;81.80;;;;;;5131200;27;20966;-72
2023/06/10 12:44:17;;;;;;;4.10;3.80;;;28.60;81.80;;;;;;5149877;27;20176;-72
2023/06/10 12:46:43;;;;;;;4.20;3.77;;;28.70;82.50;;;;;;5149815;27;20424;-71